createdAt,value
2018-06-23T00:00:58.233Z,62.30
2018-06-23T00:03:27.312Z,62.10
2018-06-23T00:05:56.392Z,62.10
2018-06-23T00:08:25.200Z,62.10
2018-06-23T00:10:54.180Z,62.00
2018-06-23T00:13:23.139Z,62.00
2018-06-23T00:15:51.879Z,62.30
2018-06-23T00:18:20.820Z,62.60
2018-06-23T00:20:49.477Z,63.10
2018-06-23T00:23:18.385Z,63.20
2018-06-23T00:25:52.381Z,63.30
2018-06-23T00:28:21.901Z,63.40
2018-06-23T00:30:50.623Z,63.20
2018-06-23T00:33:19.312Z,63.50
2018-06-23T00:35:48.500Z,63.30
2018-06-23T00:38:17.441Z,63.10
2018-06-23T00:40:46.001Z,63.20
2018-06-23T00:43:14.624Z,63.30
2018-06-23T00:45:43.474Z,63.10
2018-06-23T00:48:12.222Z,63.00
2018-06-23T00:50:41.235Z,63.10
2018-06-23T00:53:09.855Z,63.10
2018-06-23T00:55:38.475Z,62.60
2018-06-23T00:58:06.969Z,63.10
2018-06-23T01:00:35.621Z,63.30
2018-06-23T01:03:04.337Z,63.40
2018-06-23T01:05:33.078Z,63.60
2018-06-23T01:08:01.528Z,63.70
2018-06-23T01:12:58.911Z,63.70
2018-06-23T01:15:27.445Z,63.90
2018-06-23T01:17:56.186Z,64.00
2018-06-23T01:20:25.189Z,63.90
2018-06-23T01:22:53.752Z,63.60
2018-06-23T01:25:22.481Z,63.70
2018-06-23T01:27:52.488Z,63.80
2018-06-23T01:30:21.284Z,63.70
2018-06-23T01:32:50.059Z,63.50
2018-06-23T01:35:18.849Z,63.30
2018-06-23T01:37:47.596Z,63.20
2018-06-23T01:40:16.481Z,63.40
2018-06-23T01:42:46.217Z,63.30
2018-06-23T01:45:15.140Z,63.30
2018-06-23T01:47:43.724Z,63.50
2018-06-23T01:50:12.797Z,63.80
2018-06-23T01:52:41.327Z,64.00
2018-06-23T01:55:10.863Z,64.30
2018-06-23T02:02:36.003Z,64.30
2018-06-23T02:05:04.740Z,64.20
2018-06-23T02:07:33.521Z,64.60
2018-06-23T02:10:02.380Z,64.70
2018-06-23T02:12:30.977Z,64.80
2018-06-23T02:15:04.991Z,64.80
2018-06-23T02:17:38.704Z,64.90
2018-06-23T02:20:12.394Z,65.00
2018-06-23T02:22:47.255Z,65.10
2018-06-23T02:25:21.373Z,65.40
2018-06-23T02:27:55.683Z,65.70
2018-06-23T02:33:12.437Z,65.80
2018-06-23T02:35:41.155Z,65.80
2018-06-23T02:38:09.665Z,66.10
2018-06-23T02:40:38.247Z,66.40
2018-06-23T02:43:06.734Z,66.40
2018-06-23T02:45:35.134Z,66.30
2018-06-23T02:48:03.712Z,66.50
2018-06-23T02:50:32.327Z,66.60
2018-06-23T02:53:00.884Z,66.40
2018-06-23T02:55:29.465Z,66.40
2018-06-23T02:57:59.016Z,66.30
2018-06-23T03:00:27.500Z,66.10
2018-06-23T03:02:56.169Z,66.20
2018-06-23T03:05:24.875Z,66.40
2018-06-23T03:07:53.497Z,66.70
2018-06-23T03:10:24.167Z,67.00
2018-06-23T03:12:52.593Z,67.60
2018-06-23T03:15:21.394Z,67.70
2018-06-23T03:17:50.060Z,68.00
2018-06-23T03:20:18.689Z,68.20
2018-06-23T03:22:47.296Z,68.40
2018-06-23T03:25:15.829Z,68.70
2018-06-23T03:27:44.371Z,68.60
2018-06-23T03:30:13.006Z,68.60
2018-06-23T03:35:09.777Z,69.00
2018-06-23T03:37:38.330Z,68.80
2018-06-23T03:40:06.847Z,68.80
2018-06-23T03:42:35.724Z,68.60
2018-06-23T03:45:04.390Z,68.60
2018-06-23T03:47:33.044Z,68.90
2018-06-23T03:50:02.640Z,69.00
2018-06-23T03:52:31.107Z,70.00
2018-06-23T03:54:59.782Z,69.30
2018-06-23T03:57:28.297Z,69.10
2018-06-23T03:59:56.846Z,69.30
2018-06-23T04:02:25.399Z,69.40
2018-06-23T04:04:54.895Z,69.40
2018-06-23T04:07:23.475Z,69.70
2018-06-23T04:09:52.122Z,69.90
2018-06-23T04:12:20.690Z,70.60
2018-06-23T04:14:49.502Z,71.80
2018-06-23T04:17:18.266Z,71.80
2018-06-23T04:19:46.814Z,72.10
2018-06-23T04:22:15.267Z,72.60
2018-06-23T04:29:41.067Z,74.00
2018-06-23T04:32:09.550Z,73.40
2018-06-23T04:34:38.388Z,73.70
2018-06-23T04:37:06.956Z,73.70
2018-06-23T04:39:35.499Z,74.00
2018-06-23T04:42:04.275Z,74.10
2018-06-23T04:44:33.067Z,74.20
2018-06-23T04:47:02.300Z,74.40
2018-06-23T04:49:30.810Z,74.40
2018-06-23T04:52:00.093Z,74.60
2018-06-23T04:54:28.542Z,74.60
2018-06-23T04:56:57.048Z,74.80
2018-06-23T04:59:25.649Z,74.90
2018-06-23T05:01:54.698Z,74.70
2018-06-23T05:04:24.002Z,74.80
2018-06-23T05:06:55.294Z,75.20
2018-06-23T05:11:52.394Z,76.70
2018-06-23T05:16:49.179Z,77.00
2018-06-23T05:19:17.766Z,77.20
2018-06-23T05:21:46.396Z,77.20
2018-06-23T05:24:14.801Z,77.20
2018-06-23T05:26:43.325Z,77.20
2018-06-23T05:29:11.808Z,77.20
2018-06-23T05:31:40.291Z,77.20
2018-06-23T05:34:09.079Z,77.30
2018-06-23T05:36:37.982Z,77.50
2018-06-23T05:39:08.821Z,77.60
2018-06-23T05:41:37.589Z,77.80
2018-06-23T05:44:06.610Z,77.60
2018-06-23T05:46:35.438Z,77.70
2018-06-23T05:49:04.072Z,77.60
2018-06-23T05:54:01.111Z,77.50
2018-06-23T05:56:29.726Z,77.50
2018-06-23T05:58:58.370Z,77.30
2018-06-23T06:01:26.949Z,77.20
2018-06-23T06:03:55.516Z,77.00
2018-06-23T06:06:24.066Z,77.00
2018-06-23T06:11:20.904Z,77.20
2018-06-23T06:13:49.589Z,76.70
2018-06-23T06:16:19.117Z,76.60
2018-06-23T06:18:47.703Z,76.00
2018-06-23T06:21:16.443Z,75.80
2018-06-23T06:23:45.297Z,75.20
2018-06-23T06:26:13.903Z,74.80
2018-06-23T06:28:42.390Z,74.90
2018-06-23T06:31:10.910Z,75.10
2018-06-23T06:33:39.452Z,74.70
2018-06-23T06:36:08.071Z,73.90
2018-06-23T06:38:36.582Z,73.50
2018-06-23T06:41:05.262Z,73.70
2018-06-23T06:43:33.772Z,73.80
2018-06-23T06:46:03.003Z,73.60
2018-06-23T06:48:31.609Z,72.80
2018-06-23T06:51:00.490Z,72.70
2018-06-23T06:53:29.079Z,71.10
2018-06-23T06:58:26.038Z,69.60
2018-06-23T07:03:22.746Z,70.90
2018-06-23T07:05:51.342Z,70.10
2018-06-23T07:08:19.797Z,70.20
2018-06-23T07:10:48.406Z,70.30
2018-06-23T07:13:17.087Z,69.80
2018-06-23T07:15:45.928Z,70.50
2018-06-23T07:18:14.315Z,70.30
2018-06-23T07:20:43.183Z,69.60
2018-06-23T07:23:11.816Z,69.70
2018-06-23T07:25:40.516Z,69.90
2018-06-23T07:28:09.084Z,70.30
2018-06-23T07:30:37.734Z,69.10
2018-06-23T07:33:06.613Z,68.90
2018-06-23T07:35:35.270Z,68.80
2018-06-23T07:38:04.275Z,69.50
2018-06-23T07:40:33.053Z,68.80
2018-06-23T07:43:01.627Z,68.30
2018-06-23T07:45:30.284Z,67.60
2018-06-23T07:48:00.550Z,67.40
2018-06-23T07:50:29.487Z,65.50
2018-06-23T07:52:57.930Z,66.60
2018-06-23T07:55:26.661Z,65.90
2018-06-23T07:57:55.406Z,66.10
2018-06-23T08:00:24.117Z,65.20
2018-06-23T08:05:21.296Z,65.40
2018-06-23T08:07:49.848Z,63.00
2018-06-23T08:10:18.444Z,63.70
2018-06-23T08:12:47.059Z,62.20
2018-06-23T08:15:15.649Z,62.60
2018-06-23T08:17:44.528Z,62.20
2018-06-23T08:20:13.608Z,62.00
2018-06-23T08:22:42.441Z,63.30
2018-06-23T08:25:11.328Z,62.40
2018-06-23T08:27:40.260Z,61.20
2018-06-23T08:30:09.059Z,62.00
2018-06-23T08:32:38.048Z,61.00
2018-06-23T08:35:06.593Z,60.90
2018-06-23T08:37:35.448Z,59.80
2018-06-23T08:40:04.197Z,59.90
2018-06-23T08:42:33.596Z,59.50
2018-06-23T08:45:02.502Z,59.10
2018-06-23T08:47:31.193Z,58.20
2018-06-23T08:52:28.168Z,58.80
2018-06-23T08:54:57.225Z,58.60
2018-06-23T08:57:26.498Z,58.90
2018-06-23T08:59:56.026Z,58.60
2018-06-23T09:02:24.677Z,58.50
2018-06-23T09:04:53.539Z,57.70
2018-06-23T09:07:22.344Z,58.00
2018-06-23T09:09:50.979Z,58.20
2018-06-23T09:14:48.140Z,58.00
2018-06-23T09:17:17.208Z,57.80
2018-06-23T09:19:45.735Z,57.90
2018-06-23T09:22:14.262Z,56.40
2018-06-23T09:24:45.118Z,56.40
2018-06-23T09:27:13.763Z,56.90
2018-06-23T09:29:44.116Z,55.50
2018-06-23T09:32:12.955Z,55.90
2018-06-23T09:34:41.737Z,56.70
2018-06-23T09:37:10.716Z,56.10
2018-06-23T09:39:39.689Z,57.00
2018-06-23T09:42:08.844Z,56.30
2018-06-23T09:44:37.892Z,56.80
2018-06-23T09:47:06.886Z,55.70
2018-06-23T09:49:35.997Z,56.00
2018-06-23T09:52:04.652Z,56.20
2018-06-23T09:57:01.534Z,56.60
2018-06-23T09:59:30.088Z,55.90
2018-06-23T10:02:00.025Z,57.10
2018-06-23T10:06:56.976Z,57.90
2018-06-23T10:09:25.789Z,57.10
2018-06-23T10:11:54.668Z,57.10
2018-06-23T10:14:23.411Z,57.50
2018-06-23T10:16:52.273Z,58.50
2018-06-23T10:19:21.030Z,56.60
2018-06-23T10:21:49.927Z,55.00
2018-06-23T10:24:18.949Z,56.70
2018-06-23T10:26:47.775Z,56.90
2018-06-23T10:29:16.572Z,56.40
2018-06-23T10:31:45.354Z,55.40
2018-06-23T10:34:14.155Z,54.20
2018-06-23T10:36:43.024Z,52.80
2018-06-23T10:39:12.451Z,52.20
2018-06-23T10:44:10.218Z,52.90
2018-06-23T10:46:39.683Z,51.70
2018-06-23T10:49:08.611Z,52.60
2018-06-23T10:51:37.872Z,51.80
2018-06-23T10:54:07.658Z,52.30
2018-06-23T10:56:36.612Z,51.90
2018-06-23T10:59:06.051Z,53.20
2018-06-23T11:01:35.315Z,50.80
2018-06-23T11:04:04.550Z,52.20
2018-06-23T11:06:33.716Z,52.20
2018-06-23T11:09:03.046Z,51.80
2018-06-23T11:11:32.411Z,49.90
2018-06-23T11:14:02.514Z,51.20
2018-06-23T11:16:31.464Z,50.30
2018-06-23T11:19:01.557Z,50.30
2018-06-23T11:21:31.498Z,50.70
2018-06-23T11:24:00.775Z,50.90
2018-06-23T11:26:29.865Z,51.80
2018-06-23T11:28:58.549Z,50.50
2018-06-23T11:31:29.244Z,51.10
2018-06-23T11:33:58.317Z,50.70
2018-06-23T11:36:26.893Z,50.20
2018-06-23T11:38:55.686Z,50.60
2018-06-23T11:41:24.537Z,50.40
2018-06-23T11:43:53.764Z,50.50
2018-06-23T11:46:24.510Z,47.50
2018-06-23T11:48:53.631Z,47.90
2018-06-23T11:51:23.880Z,48.30
2018-06-23T11:53:53.768Z,49.70
2018-06-23T11:56:24.314Z,50.40
2018-06-23T11:58:55.633Z,50.00
2018-06-23T12:01:24.289Z,50.20
2018-06-23T12:03:54.213Z,50.50
2018-06-23T12:06:24.764Z,51.00
2018-06-23T12:08:53.794Z,49.70
2018-06-23T12:11:23.332Z,48.40
2018-06-23T12:13:52.150Z,49.20
2018-06-23T12:16:20.733Z,50.40
2018-06-23T12:18:49.252Z,50.30
2018-06-23T12:21:17.899Z,49.40
2018-06-23T12:23:46.573Z,48.60
2018-06-23T12:26:15.430Z,49.70
2018-06-23T12:28:44.167Z,49.70
2018-06-23T12:31:13.142Z,50.00
2018-06-23T12:33:41.853Z,49.10
2018-06-23T12:36:10.377Z,49.20
2018-06-23T12:38:39.182Z,48.60
2018-06-23T12:41:07.805Z,48.60
2018-06-23T12:43:36.484Z,50.30
2018-06-23T12:46:05.323Z,48.20
2018-06-23T12:48:34.655Z,47.40
2018-06-23T12:51:03.368Z,46.60
2018-06-23T12:53:32.010Z,46.80
2018-06-23T12:56:00.645Z,46.90
2018-06-23T12:58:29.312Z,46.40
2018-06-23T13:00:57.879Z,45.90
2018-06-23T13:03:26.469Z,47.50
2018-06-23T13:05:55.172Z,46.90
2018-06-23T13:08:23.819Z,48.80
2018-06-23T13:10:52.562Z,46.50
2018-06-23T13:13:21.280Z,46.00
2018-06-23T13:15:50.033Z,46.60
2018-06-23T13:18:18.831Z,45.70
2018-06-23T13:20:47.681Z,44.20
2018-06-23T13:23:16.916Z,44.80
2018-06-23T13:25:45.942Z,46.10
2018-06-23T13:28:14.623Z,46.30
2018-06-23T13:30:43.216Z,47.00
2018-06-23T13:33:12.174Z,47.10
2018-06-23T13:35:41.268Z,46.70
2018-06-23T13:40:38.551Z,47.10
2018-06-23T13:43:07.433Z,46.40
2018-06-23T13:45:36.341Z,46.10
2018-06-23T13:48:05.327Z,46.80
2018-06-23T13:50:34.148Z,47.00
2018-06-23T13:53:02.747Z,46.40
2018-06-23T13:55:31.426Z,48.30
2018-06-23T13:57:59.826Z,48.40
2018-06-23T14:00:28.780Z,46.60
2018-06-23T14:02:57.248Z,45.50
2018-06-23T14:05:25.747Z,46.30
2018-06-23T14:07:54.649Z,46.30
2018-06-23T14:10:24.073Z,44.50
2018-06-23T14:12:52.603Z,45.00
2018-06-23T14:15:22.366Z,44.50
2018-06-23T14:17:51.927Z,43.80
2018-06-23T14:20:20.501Z,46.50
2018-06-23T14:22:49.058Z,45.00
2018-06-23T14:27:45.983Z,42.90
2018-06-23T14:30:14.997Z,43.30
2018-06-23T14:35:12.033Z,43.50
2018-06-23T14:37:40.603Z,43.70
2018-06-23T14:40:10.730Z,43.80
2018-06-23T14:42:39.229Z,45.10
2018-06-23T14:45:08.229Z,45.80
2018-06-23T14:47:36.971Z,44.70
2018-06-23T14:50:05.799Z,44.20
2018-06-23T14:52:34.791Z,46.60
2018-06-23T14:55:03.821Z,45.20
2018-06-23T14:57:33.517Z,45.50
2018-06-23T15:00:02.599Z,44.40
2018-06-23T15:04:59.837Z,44.60
2018-06-23T15:10:08.417Z,46.70
2018-06-23T15:12:48.381Z,44.80
2018-06-23T15:15:17.122Z,42.30
2018-06-23T15:17:45.773Z,42.60
2018-06-23T15:20:14.283Z,42.90
2018-06-23T15:22:43.357Z,44.60
2018-06-23T15:25:12.033Z,45.80
2018-06-23T15:27:40.564Z,45.30
2018-06-23T15:32:37.949Z,45.90
2018-06-23T15:35:06.691Z,44.30
2018-06-23T15:37:35.252Z,44.30
2018-06-23T15:40:03.784Z,44.20
2018-06-23T15:42:32.432Z,45.10
2018-06-23T15:45:01.160Z,45.00
2018-06-23T15:50:00.188Z,46.20
2018-06-23T15:52:28.861Z,46.20
2018-06-23T15:54:57.295Z,45.10
2018-06-23T15:57:25.772Z,45.40
2018-06-23T15:59:55.253Z,45.10
2018-06-23T16:02:24.662Z,43.00
2018-06-23T16:04:53.320Z,44.00
2018-06-23T16:07:21.838Z,44.20
2018-06-23T16:09:50.410Z,42.80
2018-06-23T16:12:18.861Z,41.30
2018-06-23T16:14:47.469Z,42.00
2018-06-23T16:17:16.382Z,41.90
2018-06-23T16:19:45.042Z,43.00
2018-06-23T16:22:14.380Z,42.90
2018-06-23T16:24:43.096Z,42.40
2018-06-23T16:27:11.678Z,42.40
2018-06-23T16:29:42.429Z,44.20
2018-06-23T16:32:10.964Z,43.40
2018-06-23T16:34:39.820Z,43.50
2018-06-23T16:37:08.972Z,45.20
2018-06-23T16:42:07.151Z,45.20
2018-06-23T16:44:35.872Z,45.10
2018-06-23T16:47:04.634Z,45.00
2018-06-23T16:49:33.024Z,44.50
2018-06-23T16:52:01.685Z,44.60
2018-06-23T16:54:30.568Z,45.00
2018-06-23T16:56:59.145Z,44.50
2018-06-23T16:59:27.645Z,44.70
2018-06-23T17:01:56.542Z,44.90
2018-06-23T17:04:25.546Z,43.40
2018-06-23T17:06:54.511Z,43.70
2018-06-23T17:09:23.096Z,44.50
2018-06-23T17:11:51.597Z,43.40
2018-06-23T17:14:20.330Z,44.10
2018-06-23T17:16:49.151Z,44.70
2018-06-23T17:19:17.959Z,44.80
2018-06-23T17:21:46.759Z,45.10
2018-06-23T17:24:15.527Z,46.10
2018-06-23T17:26:44.127Z,44.70
2018-06-23T17:29:12.823Z,44.70
2018-06-23T17:31:41.379Z,44.20
2018-06-23T17:34:10.056Z,44.80
2018-06-23T17:36:38.471Z,44.10
2018-06-23T17:39:08.486Z,44.90
2018-06-23T17:41:36.977Z,45.60
2018-06-23T17:44:05.585Z,45.20
2018-06-23T17:46:34.325Z,45.40
2018-06-23T17:49:03.400Z,45.90
2018-06-23T17:51:32.097Z,45.90
2018-06-23T17:54:01.160Z,46.80
2018-06-23T17:56:30.385Z,46.50
2018-06-23T17:59:00.490Z,46.30
2018-06-23T18:01:29.865Z,46.60
2018-06-23T18:03:59.189Z,47.00
2018-06-23T18:06:28.509Z,46.70
2018-06-23T18:08:57.390Z,46.70
2018-06-23T18:11:26.709Z,47.50
2018-06-23T18:13:56.410Z,47.20
2018-06-23T18:16:25.372Z,47.30
2018-06-23T18:18:56.082Z,47.80
2018-06-23T18:21:24.681Z,47.90
2018-06-23T18:23:54.770Z,48.20
2018-06-23T18:26:23.958Z,48.80
2018-06-23T18:28:52.550Z,48.50
2018-06-23T18:31:22.104Z,48.20
2018-06-23T18:33:50.801Z,48.70
2018-06-23T18:36:20.529Z,49.00
2018-06-23T18:38:49.313Z,49.00
2018-06-23T18:41:18.700Z,48.80
2018-06-23T18:43:47.237Z,48.70
2018-06-23T18:46:15.919Z,48.90
2018-06-23T18:48:44.716Z,49.40
2018-06-23T18:51:14.751Z,49.70
2018-06-23T18:53:44.216Z,50.00
2018-06-23T18:56:13.590Z,49.90
2018-06-23T18:58:42.584Z,49.80
2018-06-23T19:01:12.819Z,49.90
2018-06-23T19:03:41.667Z,50.10
2018-06-23T19:06:10.381Z,50.20
2018-06-23T19:08:39.201Z,50.60
2018-06-23T19:11:07.911Z,50.40
2018-06-23T19:13:36.668Z,50.60
2018-06-23T19:16:05.316Z,50.90
2018-06-23T19:18:33.865Z,50.60
2018-06-23T19:21:02.475Z,50.50
2018-06-23T19:23:31.108Z,50.80
2018-06-23T19:25:59.985Z,51.20
2018-06-23T19:28:28.507Z,50.60
2018-06-23T19:30:57.329Z,50.70
2018-06-23T19:33:26.264Z,50.60
2018-06-23T19:35:55.146Z,50.30
2018-06-23T19:38:24.109Z,50.30
2018-06-23T19:40:52.768Z,50.20
2018-06-23T19:43:21.448Z,50.00
2018-06-23T19:45:50.338Z,50.90
2018-06-23T19:48:18.924Z,50.10
2018-06-23T19:50:47.628Z,50.40
2018-06-23T19:53:16.556Z,50.50
2018-06-23T19:55:45.208Z,50.90
2018-06-23T19:58:14.070Z,50.70
2018-06-23T20:00:42.718Z,51.00
2018-06-23T20:03:12.009Z,51.00
2018-06-23T20:05:40.916Z,51.30
2018-06-23T20:08:09.451Z,51.50
2018-06-23T20:10:38.147Z,51.50
2018-06-23T20:13:06.774Z,51.60
2018-06-23T20:15:35.496Z,51.40
2018-06-23T20:18:04.480Z,51.50
2018-06-23T20:20:33.844Z,51.70
2018-06-23T20:23:03.141Z,51.90
2018-06-23T20:25:31.658Z,51.90
2018-06-23T20:28:00.365Z,52.10
2018-06-23T20:30:30.409Z,52.00
2018-06-23T20:32:59.007Z,52.20
2018-06-23T20:35:28.156Z,52.10
2018-06-23T20:37:57.340Z,52.20
2018-06-23T20:40:26.043Z,52.20
2018-06-23T20:42:54.914Z,52.30
2018-06-23T20:45:23.570Z,52.30
2018-06-23T20:47:52.131Z,52.50
2018-06-23T20:50:21.216Z,52.50
2018-06-23T20:52:49.934Z,52.60
2018-06-23T20:55:18.882Z,52.70
2018-06-23T21:00:16.537Z,52.80
2018-06-23T21:02:45.351Z,52.70
2018-06-23T21:05:13.933Z,52.90
2018-06-23T21:07:42.543Z,52.90
2018-06-23T21:10:21.283Z,53.10
2018-06-23T21:12:50.198Z,53.00
2018-06-23T21:15:19.381Z,53.20
2018-06-23T21:17:48.052Z,53.50
2018-06-23T21:20:16.856Z,53.40
2018-06-23T21:22:45.528Z,53.30
2018-06-23T21:25:14.458Z,53.50
2018-06-23T21:27:43.179Z,53.70
2018-06-23T21:30:12.091Z,54.00
2018-06-23T21:32:41.086Z,53.80
2018-06-23T21:35:10.060Z,53.70
2018-06-23T21:37:39.347Z,53.90
2018-06-23T21:40:08.326Z,54.00
2018-06-23T21:42:37.131Z,54.00
2018-06-23T21:45:06.188Z,53.80
2018-06-23T21:47:37.826Z,53.90
2018-06-23T21:50:06.959Z,54.20
2018-06-23T21:52:36.055Z,54.40
2018-06-23T21:55:05.711Z,54.60
2018-06-23T21:57:35.706Z,54.40
2018-06-23T22:00:08.136Z,54.70
2018-06-23T22:02:37.159Z,54.90
2018-06-23T22:05:06.075Z,55.30
2018-06-23T22:07:35.047Z,55.60
2018-06-23T22:10:04.228Z,56.00
2018-06-23T22:12:33.759Z,56.40
2018-06-23T22:15:02.638Z,57.30
2018-06-23T22:17:31.295Z,56.80
2018-06-23T22:22:29.188Z,57.50
2018-06-23T22:24:57.638Z,57.40
2018-06-23T22:27:26.164Z,57.50
2018-06-23T22:29:55.128Z,57.60
2018-06-23T22:32:24.811Z,57.40
2018-06-23T22:34:53.714Z,57.80
2018-06-23T22:37:23.182Z,58.20
2018-06-23T22:39:52.052Z,58.10
2018-06-23T22:42:21.265Z,58.20
2018-06-23T22:44:50.121Z,58.30
2018-06-23T22:47:19.103Z,58.90
2018-06-23T22:49:48.573Z,59.00
2018-06-23T22:52:17.036Z,58.70
2018-06-23T22:54:46.054Z,58.90
2018-06-23T23:01:02.325Z,59.20
2018-06-23T23:03:30.863Z,59.40
2018-06-23T23:05:59.662Z,59.20
2018-06-23T23:08:28.172Z,59.10
2018-06-23T23:10:56.937Z,59.00
2018-06-23T23:13:25.626Z,58.90
2018-06-23T23:15:54.383Z,58.60
2018-06-23T23:18:23.429Z,58.50
2018-06-23T23:20:52.189Z,58.70
2018-06-23T23:23:20.812Z,58.90
2018-06-23T23:25:49.450Z,59.10
2018-06-23T23:28:18.111Z,58.90
2018-06-23T23:30:46.704Z,59.10
2018-06-23T23:33:15.342Z,59.50
2018-06-23T23:35:44.033Z,59.70
2018-06-23T23:38:12.478Z,59.30
2018-06-23T23:40:41.385Z,59.50
2018-06-23T23:43:09.940Z,60.00
2018-06-23T23:45:38.711Z,60.80
2018-06-23T23:48:07.591Z,61.50
2018-06-23T23:50:36.212Z,60.50
2018-06-23T23:55:34.863Z,61.00
2018-06-23T23:58:03.750Z,61.50
